Time;durP1;ratioP1;P1;durP2;ratioP2;P2;SDS_P1;SDS_P2;PMS_P1;PMS_P2;Temp;Humidity;BMP_temperature;BMP_pressure;BME280_temperature;BME280_humidity;BME280_pressure;Samples;Min_cycle;Max_cycle;Signal;HPM_P1;HPM_P2
2022/10/30 00:02:06;;;;;;;24.47;15.20;;;15.50;99.90;;;;;;4930054;28;20681;-69
2022/10/30 00:04:31;;;;;;;20.70;15.33;;;15.40;99.90;;;;;;4930044;29;20206;-69
2022/10/30 00:06:57;;;;;;;19.37;15.23;;;15.40;99.90;;;;;;4929732;29;20730;-70
2022/10/30 00:09:22;;;;;;;24.07;15.03;;;15.40;99.90;;;;;;4928172;29;20213;-69
2022/10/30 00:11:48;;;;;;;20.70;14.47;;;15.40;99.90;;;;;;4930175;29;20285;-69
2022/10/30 00:14:13;;;;;;;18.83;14.50;;;15.40;99.90;;;;;;4934897;29;20581;-70
2022/10/30 00:16:39;;;;;;;21.10;14.90;;;15.30;99.90;;;;;;4938967;29;20300;-69
2022/10/30 00:19:05;;;;;;;20.03;14.73;;;15.30;99.90;;;;;;4938872;29;20198;-69
2022/10/30 00:21:31;;;;;;;21.23;15.37;;;15.30;99.90;;;;;;4931894;29;20213;-70
2022/10/30 00:23:56;;;;;;;21.13;14.90;;;15.30;99.90;;;;;;4937865;29;20206;-70
2022/10/30 00:26:23;;;;;;;19.90;14.70;;;15.30;99.90;;;;;;4935153;29;20261;-70
2022/10/30 00:28:50;;;;;;;22.17;15.33;;;15.20;99.90;;;;;;4934022;29;20226;-70
2022/10/30 00:31:16;;;;;;;25.33;16.33;;;15.20;99.90;;;;;;4935126;29;21071;-70
2022/10/30 00:33:41;;;;;;;23.47;15.17;;;15.20;99.90;;;;;;4938050;29;20260;-70
2022/10/30 00:36:07;;;;;;;27.30;16.27;;;15.20;99.90;;;;;;4937197;29;20225;-69
2022/10/30 00:38:32;;;;;;;15.40;13.77;;;15.20;99.90;;;;;;4931032;29;20206;-68
2022/10/30 00:40:58;;;;;;;22.50;14.27;;;15.10;99.90;;;;;;4928923;29;20205;-70
2022/10/30 00:43:31;;;;;;;20.97;13.97;;;15.10;99.90;;;;;;4929186;29;21009;-70
2022/10/30 00:46:00;;;;;;;19.43;13.87;;;15.00;99.90;;;;;;4928531;29;21059;-69
2022/10/30 00:48:27;;;;;;;19.63;14.77;;;15.00;99.90;;;;;;4924608;29;20226;-70
2022/10/30 00:50:54;;;;;;;22.87;14.30;;;15.00;99.90;;;;;;4926133;29;20306;-70
2022/10/30 00:53:20;;;;;;;21.13;15.57;;;14.90;99.90;;;;;;4933266;29;20218;-70
2022/10/30 00:55:51;;;;;;;18.97;14.43;;;14.90;99.90;;;;;;4930008;29;20219;-69
2022/10/30 00:58:20;;;;;;;23.20;15.80;;;14.90;99.90;;;;;;4928388;29;20270;-70
2022/10/30 01:00:50;;;;;;;23.83;16.47;;;14.90;99.90;;;;;;4932922;29;20206;-69
2022/10/30 01:03:17;;;;;;;21.33;16.97;;;14.90;99.90;;;;;;4930288;29;20230;-69
2022/10/30 01:05:46;;;;;;;22.73;15.90;;;14.90;99.90;;;;;;4930703;29;20211;-70
2022/10/30 01:08:12;;;;;;;22.07;16.97;;;15.00;99.90;;;;;;4932584;29;20220;-69
2022/10/30 01:10:38;;;;;;;20.97;15.03;;;15.00;99.90;;;;;;4932704;29;20638;-69
2022/10/30 01:13:04;;;;;;;24.77;17.73;;;15.00;99.90;;;;;;4932416;29;20613;-69
2022/10/30 01:15:45;;;;;;;20.67;16.87;;;15.00;99.90;;;;;;4932514;29;20317;-69
2022/10/30 01:18:34;;;;;;;21.60;16.43;;;15.00;99.90;;;;;;4928734;29;20207;-70
2022/10/30 01:21:15;;;;;;;16.83;14.50;;;15.00;99.90;;;;;;4929033;29;20219;-71
2022/10/30 01:23:57;;;;;;;23.53;15.60;;;15.00;99.90;;;;;;4930813;29;20233;-71
2022/10/30 01:26:51;;;;;;;21.47;15.33;;;15.00;99.90;;;;;;4934326;29;20297;-71
2022/10/30 01:29:30;;;;;;;18.90;14.90;;;14.90;99.90;;;;;;4928183;29;20202;-71
2022/10/30 01:32:26;;;;;;;19.23;15.50;;;14.90;99.90;;;;;;4927189;29;20229;-71
2022/10/30 01:35:09;;;;;;;20.70;14.63;;;14.90;99.90;;;;;;4923811;29;20302;-71
2022/10/30 01:37:46;;;;;;;26.50;14.73;;;14.90;99.90;;;;;;4932145;29;20225;-71
2022/10/30 01:40:17;;;;;;;18.63;15.17;;;14.90;99.90;;;;;;4927719;29;20206;-71
2022/10/30 01:42:55;;;;;;;22.30;15.47;;;14.80;99.90;;;;;;4931305;29;20301;-71
2022/10/30 01:45:48;;;;;;;18.60;15.20;;;14.80;99.90;;;;;;4923451;29;20627;-70
2022/10/30 01:48:52;;;;;;;23.10;15.40;;;14.80;99.90;;;;;;4929537;29;20240;-72
2022/10/30 01:51:38;;;;;;;24.20;16.83;;;14.80;99.90;;;;;;4928028;29;20688;-71
2022/10/30 01:54:27;;;;;;;19.57;15.60;;;14.80;99.90;;;;;;4930413;28;20206;-71
2022/10/30 01:57:14;;;;;;;20.40;16.87;;;14.80;99.90;;;;;;4905534;29;20584;-71
2022/10/30 01:59:51;;;;;;;25.97;16.10;;;14.80;99.90;;;;;;4928123;29;20558;-71
2022/10/30 02:02:17;;;;;;;20.80;14.97;;;14.80;99.90;;;;;;4926991;29;20203;-70
2022/10/30 02:04:43;;;;;;;20.00;15.00;;;14.70;99.90;;;;;;4932910;29;20229;-70
2022/10/30 02:07:10;;;;;;;22.17;15.97;;;14.70;99.90;;;;;;4931514;29;20194;-71
2022/10/30 02:09:36;;;;;;;23.23;17.17;;;14.70;99.90;;;;;;4926884;29;20203;-70
2022/10/30 02:12:02;;;;;;;21.07;16.57;;;14.60;99.90;;;;;;4929547;29;20213;-70
2022/10/30 02:14:32;;;;;;;17.83;15.43;;;14.60;99.90;;;;;;4935472;29;20541;-70
2022/10/30 02:17:01;;;;;;;23.63;16.13;;;14.50;99.90;;;;;;4931618;29;20222;-70
2022/10/30 02:19:27;;;;;;;18.60;15.80;;;14.50;99.90;;;;;;4930873;29;20297;-70
2022/10/30 02:21:52;;;;;;;21.90;15.63;;;14.50;99.90;;;;;;4931413;29;20217;-70
2022/10/30 02:24:18;;;;;;;23.63;16.63;;;14.50;99.90;;;;;;4928974;29;20205;-70
2022/10/30 02:26:44;;;;;;;20.27;17.27;;;14.50;99.90;;;;;;4930667;29;20320;-70
2022/10/30 02:29:09;;;;;;;24.87;18.20;;;14.50;99.90;;;;;;4930866;29;20209;-70
2022/10/30 02:31:36;;;;;;;20.50;18.40;;;14.40;99.90;;;;;;4930615;29;20211;-71
2022/10/30 02:34:01;;;;;;;24.40;17.30;;;14.40;99.90;;;;;;4934507;29;20288;-71
2022/10/30 02:36:26;;;;;;;22.63;15.57;;;14.40;99.90;;;;;;4925530;29;20227;-72
2022/10/30 02:38:54;;;;;;;22.10;18.17;;;14.40;99.90;;;;;;4931131;29;20210;-70
2022/10/30 02:41:20;;;;;;;23.47;16.17;;;14.40;99.90;;;;;;4931129;29;20194;-70
2022/10/30 02:43:45;;;;;;;25.00;17.63;;;14.30;99.90;;;;;;4932311;29;20207;-70
2022/10/30 02:46:10;;;;;;;22.80;17.20;;;14.30;99.90;;;;;;4929595;29;20225;-69
2022/10/30 02:48:36;;;;;;;20.27;17.10;;;14.30;99.90;;;;;;4928663;29;20206;-69
2022/10/30 02:51:03;;;;;;;25.60;17.90;;;14.30;99.90;;;;;;4930236;29;20206;-69
2022/10/30 02:53:29;;;;;;;22.73;16.10;;;14.30;99.90;;;;;;4931572;29;20816;-69
2022/10/30 02:55:54;;;;;;;24.80;16.10;;;14.30;99.90;;;;;;4934911;29;20249;-69
2022/10/30 02:58:20;;;;;;;23.33;16.60;;;14.30;99.90;;;;;;4935576;28;20202;-69
2022/10/30 03:00:45;;;;;;;21.30;15.80;;;14.30;99.90;;;;;;4938151;29;20214;-69
2022/10/30 03:03:11;;;;;;;27.63;17.07;;;14.30;99.90;;;;;;4939563;29;20205;-69
2022/10/30 03:05:36;;;;;;;27.80;17.80;;;14.30;99.90;;;;;;4939860;29;20210;-69
2022/10/30 03:08:02;;;;;;;24.10;16.37;;;14.30;99.90;;;;;;4939168;29;20199;-68
2022/10/30 03:10:27;;;;;;;25.47;16.70;;;14.50;99.90;;;;;;4939710;29;20285;-69
2022/10/30 03:12:53;;;;;;;18.63;14.87;;;14.50;99.90;;;;;;4939406;29;20205;-71
2022/10/30 03:15:19;;;;;;;23.90;16.47;;;14.60;99.90;;;;;;4938270;29;20744;-71
2022/10/30 03:17:44;;;;;;;21.47;14.93;;;14.50;99.90;;;;;;4939612;29;20460;-70
2022/10/30 03:20:10;;;;;;;20.73;14.20;;;14.50;99.90;;;;;;4934558;29;20626;-70
2022/10/30 03:22:35;;;;;;;26.00;15.53;;;14.50;99.90;;;;;;4935802;29;20254;-70
2022/10/30 03:25:01;;;;;;;19.47;15.03;;;14.50;99.90;;;;;;4931427;29;20572;-70
2022/10/30 03:27:26;;;;;;;28.00;15.60;;;14.40;99.90;;;;;;4933647;29;20223;-69
2022/10/30 03:29:52;;;;;;;18.03;14.57;;;14.40;99.90;;;;;;4932371;29;20999;-70
2022/10/30 03:32:17;;;;;;;16.27;14.23;;;14.40;99.90;;;;;;4931322;29;20198;-70
2022/10/30 03:34:43;;;;;;;21.73;15.57;;;14.40;99.90;;;;;;4939810;29;20283;-70
2022/10/30 03:37:08;;;;;;;26.07;15.60;;;14.40;99.90;;;;;;4939492;29;20321;-70
2022/10/30 03:39:34;;;;;;;17.53;14.67;;;14.40;99.90;;;;;;4938705;29;20221;-69
2022/10/30 03:41:59;;;;;;;16.90;13.67;;;14.40;99.90;;;;;;4939246;29;20803;-70
2022/10/30 03:44:25;;;;;;;21.90;15.40;;;14.40;99.90;;;;;;4937339;29;20640;-68
2022/10/30 03:46:50;;;;;;;18.33;15.37;;;14.40;99.90;;;;;;4939288;29;20257;-70
2022/10/30 03:49:16;;;;;;;18.87;14.47;;;14.50;99.90;;;;;;4939439;29;20249;-71
2022/10/30 03:51:41;;;;;;;18.30;14.10;;;14.50;99.90;;;;;;4939313;28;21089;-70
2022/10/30 03:54:07;;;;;;;18.40;14.37;;;14.50;99.90;;;;;;4939053;28;20210;-70
2022/10/30 03:56:32;;;;;;;19.10;14.97;;;14.60;99.90;;;;;;4938925;29;20214;-70
2022/10/30 03:58:58;;;;;;;17.20;14.00;;;14.60;99.90;;;;;;4939118;29;20308;-70
2022/10/30 04:01:23;;;;;;;16.07;12.53;;;14.60;99.90;;;;;;4936918;28;20700;-70
2022/10/30 04:03:49;;;;;;;18.67;14.50;;;14.60;99.90;;;;;;4934713;29;20206;-69
2022/10/30 04:06:14;;;;;;;23.00;13.07;;;14.60;99.90;;;;;;4938793;29;20213;-71
2022/10/30 04:08:40;;;;;;;17.63;13.37;;;14.60;99.90;;;;;;4938739;29;20261;-70
2022/10/30 04:11:05;;;;;;;17.13;13.17;;;14.70;99.90;;;;;;4936990;29;20580;-70
2022/10/30 04:13:31;;;;;;;17.00;13.87;;;14.70;99.90;;;;;;4938784;29;20205;-70
2022/10/30 04:15:56;;;;;;;18.43;14.33;;;14.70;99.90;;;;;;4938343;29;20214;-81
2022/10/30 04:18:22;;;;;;;15.07;12.53;;;14.70;99.90;;;;;;4934242;29;20212;-67
2022/10/30 04:20:48;;;;;;;23.07;14.20;;;14.70;99.90;;;;;;4939031;29;20212;-67
2022/10/30 04:23:16;;;;;;;13.03;11.67;;;14.70;99.90;;;;;;4938980;29;20293;-66
2022/10/30 04:25:42;;;;;;;16.33;12.47;;;14.70;99.90;;;;;;4936569;29;20662;-66
2022/10/30 04:28:08;;;;;;;23.37;14.63;;;14.70;99.90;;;;;;4939103;29;20213;-68
2022/10/30 04:30:38;;;;;;;17.37;13.23;;;14.60;99.90;;;;;;4938864;29;20199;-68
2022/10/30 04:33:06;;;;;;;20.17;13.43;;;14.60;99.90;;;;;;4941518;28;20722;-68
2022/10/30 04:35:35;;;;;;;18.20;12.13;;;14.60;99.90;;;;;;4940555;29;20285;-66
2022/10/30 04:38:07;;;;;;;20.73;12.80;;;14.60;99.90;;;;;;4942824;29;20213;-66
2022/10/30 04:40:35;;;;;;;15.17;12.17;;;14.60;99.90;;;;;;4942685;29;20412;-67
2022/10/30 04:43:01;;;;;;;20.00;13.40;;;14.60;99.90;;;;;;4942359;29;20234;-67
2022/10/30 04:45:27;;;;;;;16.87;12.50;;;14.60;99.90;;;;;;4940695;29;20205;-66
2022/10/30 04:47:59;;;;;;;16.63;13.13;;;14.60;99.90;;;;;;4942168;29;20234;-67
2022/10/30 04:50:25;;;;;;;16.23;14.53;;;14.60;99.90;;;;;;4942528;28;20284;-68
2022/10/30 04:52:58;;;;;;;18.97;14.57;;;14.60;99.90;;;;;;4942458;28;20214;-66
2022/10/30 04:55:23;;;;;;;17.43;13.30;;;14.60;99.90;;;;;;4940339;29;20202;-66
2022/10/30 04:57:53;;;;;;;19.90;13.03;;;14.60;99.90;;;;;;4942118;29;20272;-70
2022/10/30 05:00:19;;;;;;;16.23;13.93;;;14.60;99.90;;;;;;4941409;29;20806;-68
2022/10/30 05:02:44;;;;;;;17.10;13.43;;;14.60;99.90;;;;;;4941176;29;20286;-66
2022/10/30 05:05:10;;;;;;;14.23;12.70;;;14.60;99.90;;;;;;4931292;29;20198;-67
2022/10/30 05:07:35;;;;;;;17.10;14.10;;;14.60;99.90;;;;;;4926908;29;20230;-67
2022/10/30 05:10:01;;;;;;;14.07;12.00;;;14.60;99.90;;;;;;4925541;29;20202;-67
2022/10/30 05:12:26;;;;;;;16.70;14.40;;;14.60;99.90;;;;;;4925381;29;20700;-67
2022/10/30 05:14:51;;;;;;;14.67;13.10;;;14.60;99.90;;;;;;4925056;29;20608;-67
2022/10/30 05:17:17;;;;;;;15.40;13.20;;;14.60;99.90;;;;;;4925265;29;20221;-67
2022/10/30 05:19:42;;;;;;;23.13;13.30;;;14.60;99.90;;;;;;4923313;29;20211;-71
2022/10/30 05:22:09;;;;;;;15.07;12.00;;;14.60;99.90;;;;;;4925560;29;20207;-67
2022/10/30 05:24:34;;;;;;;19.00;13.17;;;14.60;99.90;;;;;;4926327;29;20263;-68
2022/10/30 05:27:00;;;;;;;16.40;12.50;;;14.70;99.90;;;;;;4925805;29;20203;-67
2022/10/30 05:29:25;;;;;;;22.77;12.97;;;14.60;99.90;;;;;;4924489;29;20241;-79
2022/10/30 05:31:51;;;;;;;15.27;12.47;;;14.70;99.90;;;;;;4932552;29;20242;-80
2022/10/30 05:34:16;;;;;;;17.70;11.13;;;14.70;99.90;;;;;;4926398;29;20666;-80
2022/10/30 05:36:42;;;;;;;17.57;12.80;;;14.70;99.90;;;;;;4924536;29;20223;-79
2022/10/30 05:39:08;;;;;;;20.00;12.03;;;14.70;99.90;;;;;;4926120;29;20395;-80
2022/10/30 05:41:33;;;;;;;15.40;12.50;;;14.70;99.90;;;;;;4923336;29;20207;-81
2022/10/30 05:43:59;;;;;;;17.20;11.67;;;14.70;99.90;;;;;;4926345;28;20658;-81
2022/10/30 05:46:25;;;;;;;19.60;12.70;;;14.70;99.90;;;;;;4935329;29;20198;-80
2022/10/30 05:48:50;;;;;;;19.23;12.30;;;14.80;99.90;;;;;;4935771;29;20306;-69
2022/10/30 05:51:16;;;;;;;26.60;13.97;;;14.80;99.90;;;;;;4940357;29;20202;-67
2022/10/30 05:53:42;;;;;;;19.73;13.20;;;14.80;99.90;;;;;;4938185;28;20206;-64
2022/10/30 05:56:08;;;;;;;14.57;11.40;;;14.90;99.90;;;;;;4939190;29;20347;-64
2022/10/30 05:58:33;;;;;;;22.63;12.20;;;15.00;99.90;;;;;;4940250;29;20199;-63
2022/10/30 06:00:59;;;;;;;15.23;11.80;;;15.00;99.90;;;;;;4940465;29;20206;-63
2022/10/30 06:03:24;;;;;;;15.70;12.00;;;15.00;99.90;;;;;;4939197;29;20213;-63
2022/10/30 06:05:50;;;;;;;19.03;11.70;;;15.10;99.90;;;;;;4936041;29;20214;-64
2022/10/30 06:08:15;;;;;;;14.80;11.50;;;15.10;99.90;;;;;;4938963;29;20196;-66
2022/10/30 06:10:41;;;;;;;13.83;12.37;;;15.10;99.90;;;;;;4936840;29;20266;-66
2022/10/30 06:13:09;;;;;;;16.57;11.60;;;15.10;99.90;;;;;;4936040;29;20206;-66
2022/10/30 06:15:34;;;;;;;13.63;10.73;;;15.10;99.90;;;;;;4940161;29;20206;-66
2022/10/30 06:18:00;;;;;;;15.90;11.30;;;15.10;99.90;;;;;;4937519;29;20205;-66
2022/10/30 06:20:28;;;;;;;16.17;10.40;;;15.00;99.90;;;;;;4936446;29;20292;-66
2022/10/30 06:23:03;;;;;;;12.53;10.60;;;15.00;99.90;;;;;;4940427;29;20744;-66
2022/10/30 06:25:33;;;;;;;17.43;12.20;;;15.00;99.90;;;;;;4940199;29;20289;-65
2022/10/30 06:27:59;;;;;;;20.40;12.57;;;15.00;99.90;;;;;;4939763;29;20217;-65
2022/10/30 06:30:25;;;;;;;12.47;11.00;;;15.00;99.90;;;;;;4940257;29;20208;-66
2022/10/30 06:33:02;;;;;;;16.63;10.90;;;15.00;99.90;;;;;;4940351;29;20203;-65
2022/10/30 06:35:29;;;;;;;17.37;10.73;;;15.00;99.90;;;;;;4937615;29;20574;-66
2022/10/30 06:37:57;;;;;;;13.87;10.53;;;15.00;99.90;;;;;;4939419;29;20202;-66
2022/10/30 06:40:23;;;;;;;13.97;11.10;;;15.00;99.90;;;;;;4940017;29;20202;-67
2022/10/30 06:42:50;;;;;;;15.53;11.93;;;15.00;99.90;;;;;;4940150;29;20233;-67
2022/10/30 06:45:16;;;;;;;14.60;11.43;;;15.10;99.90;;;;;;4932959;29;20683;-67
2022/10/30 06:47:42;;;;;;;17.93;11.77;;;15.00;99.90;;;;;;4929969;29;20252;-67
2022/10/30 06:50:11;;;;;;;18.47;10.73;;;15.10;99.90;;;;;;4935374;29;20637;-67
2022/10/30 06:52:36;;;;;;;14.97;10.90;;;15.10;99.90;;;;;;4934315;28;20301;-66
2022/10/30 06:55:03;;;;;;;21.07;11.13;;;15.10;99.90;;;;;;4935534;28;20259;-66
2022/10/30 06:57:29;;;;;;;15.57;11.23;;;15.00;99.90;;;;;;4938297;29;20213;-66
2022/10/30 06:59:54;;;;;;;11.47;10.00;;;15.00;99.90;;;;;;4939166;29;20209;-67
2022/10/30 07:02:20;;;;;;;17.27;10.93;;;15.00;99.90;;;;;;4939523;29;20206;-67
2022/10/30 07:04:45;;;;;;;16.97;10.83;;;15.00;99.90;;;;;;4939157;29;20208;-67
2022/10/30 07:07:12;;;;;;;14.20;11.00;;;15.00;99.90;;;;;;4938943;29;20210;-66
2022/10/30 07:09:37;;;;;;;16.00;11.10;;;14.90;99.90;;;;;;4937155;29;20264;-68
2022/10/30 07:12:03;;;;;;;16.43;10.17;;;14.90;99.90;;;;;;4938152;29;20673;-66
2022/10/30 07:14:29;;;;;;;14.93;10.77;;;14.90;99.90;;;;;;4926481;29;20245;-67
2022/10/30 07:16:54;;;;;;;14.47;11.10;;;14.90;99.90;;;;;;4929721;29;20218;-66
2022/10/30 07:19:20;;;;;;;14.63;10.60;;;15.00;99.90;;;;;;4928680;28;20213;-66
2022/10/30 07:21:46;;;;;;;11.00;9.80;;;15.00;99.90;;;;;;4930028;29;20577;-66
2022/10/30 07:24:12;;;;;;;13.47;10.43;;;15.00;99.90;;;;;;4927165;29;20202;-67
2022/10/30 07:26:38;;;;;;;18.87;11.37;;;15.00;99.90;;;;;;4930441;29;20573;-66
2022/10/30 07:29:04;;;;;;;13.93;10.03;;;15.10;99.90;;;;;;4927150;29;20205;-67
2022/10/30 07:31:29;;;;;;;12.17;10.10;;;15.10;99.90;;;;;;4929064;29;20211;-66
2022/10/30 07:33:55;;;;;;;14.60;10.27;;;15.20;99.90;;;;;;4929135;29;20581;-66
2022/10/30 07:36:20;;;;;;;14.60;10.20;;;15.20;99.90;;;;;;4927304;29;20589;-66
2022/10/30 07:38:50;;;;;;;16.00;11.33;;;15.30;99.90;;;;;;4929413;29;20214;-66
2022/10/30 07:41:19;;;;;;;15.33;10.63;;;15.30;99.90;;;;;;4929206;29;20211;-66
2022/10/30 07:43:45;;;;;;;13.60;10.50;;;15.30;99.90;;;;;;4929493;29;20242;-67
2022/10/30 07:46:11;;;;;;;13.87;10.33;;;15.40;99.90;;;;;;4929288;29;20266;-67
2022/10/30 07:48:37;;;;;;;11.13;9.60;;;15.40;99.90;;;;;;4927214;29;20214;-66
2022/10/30 07:51:03;;;;;;;10.27;9.27;;;15.50;99.90;;;;;;4932673;29;20218;-66
2022/10/30 07:53:28;;;;;;;18.67;10.00;;;15.50;99.90;;;;;;4929546;29;20242;-67
2022/10/30 07:55:54;;;;;;;12.33;9.70;;;15.60;99.90;;;;;;4926423;29;23501;-67
2022/10/30 07:58:20;;;;;;;9.90;8.23;;;15.60;99.90;;;;;;4928926;29;20645;-68
2022/10/30 08:00:46;;;;;;;14.13;8.90;;;15.70;99.90;;;;;;4926817;29;20238;-68
2022/10/30 08:03:12;;;;;;;15.70;9.90;;;15.80;99.90;;;;;;4928978;29;20210;-68
2022/10/30 08:05:37;;;;;;;12.70;9.27;;;15.90;99.90;;;;;;4929087;29;20191;-68
2022/10/30 08:08:03;;;;;;;15.17;10.70;;;16.00;99.90;;;;;;4927563;29;21002;-68
2022/10/30 08:10:28;;;;;;;17.97;10.07;;;16.10;99.90;;;;;;4929159;29;20224;-68
2022/10/30 08:12:54;;;;;;;15.73;9.10;;;16.10;99.90;;;;;;4928859;29;20621;-68
2022/10/30 08:15:19;;;;;;;14.43;9.63;;;16.10;99.90;;;;;;4927078;29;20201;-68
2022/10/30 08:17:49;;;;;;;11.20;9.37;;;16.10;99.90;;;;;;4927943;29;20215;-68
2022/10/30 08:20:17;;;;;;;18.43;11.23;;;16.10;99.90;;;;;;4928235;29;20663;-67
2022/10/30 08:22:51;;;;;;;13.03;8.80;;;16.00;99.90;;;;;;4928362;29;20210;-67
2022/10/30 08:25:18;;;;;;;12.23;9.47;;;16.10;99.90;;;;;;4921788;29;20262;-67
2022/10/30 08:27:55;;;;;;;13.47;8.83;;;16.10;99.90;;;;;;4928742;29;21136;-67
2022/10/30 08:30:21;;;;;;;16.50;10.33;;;16.20;99.90;;;;;;4926007;29;20206;-66
2022/10/30 08:32:47;;;;;;;12.13;9.37;;;16.20;99.90;;;;;;4928581;29;20735;-66
2022/10/30 08:35:12;;;;;;;17.40;10.00;;;16.30;99.90;;;;;;4928286;29;20230;-67
2022/10/30 08:37:38;;;;;;;9.77;8.00;;;16.40;99.90;;;;;;4928537;29;20963;-67
2022/10/30 08:40:04;;;;;;;20.60;9.43;;;16.50;99.90;;;;;;4928468;29;20203;-67
2022/10/30 08:42:29;;;;;;;14.70;8.77;;;16.60;99.90;;;;;;4927671;29;20191;-66
2022/10/30 08:44:55;;;;;;;14.20;9.73;;;16.70;99.90;;;;;;4928569;29;20703;-67
2022/10/30 08:47:20;;;;;;;15.63;9.53;;;16.70;99.90;;;;;;4929357;29;20227;-67
2022/10/30 08:49:46;;;;;;;14.30;8.87;;;16.70;99.90;;;;;;4928981;29;20708;-67
2022/10/30 08:52:11;;;;;;;12.97;8.40;;;16.80;99.90;;;;;;4930139;29;20206;-67
2022/10/30 08:54:37;;;;;;;12.27;8.97;;;16.90;99.90;;;;;;4928338;29;20228;-67
2022/10/30 08:57:02;;;;;;;16.50;9.03;;;16.90;99.90;;;;;;4928444;29;20218;-67
2022/10/30 08:59:28;;;;;;;11.47;8.47;;;17.00;99.90;;;;;;4926298;29;20197;-75
2022/10/30 09:01:53;;;;;;;11.07;7.27;;;17.10;99.90;;;;;;4927714;29;20210;-75
2022/10/30 09:04:19;;;;;;;12.50;8.47;;;17.20;99.90;;;;;;4928351;29;20211;-75
2022/10/30 09:06:45;;;;;;;9.37;7.30;;;17.20;99.90;;;;;;4925977;29;20247;-66
2022/10/30 09:09:10;;;;;;;14.03;7.00;;;17.20;99.90;;;;;;4917983;29;20203;-67
2022/10/30 09:11:36;;;;;;;14.20;8.30;;;17.20;99.90;;;;;;4922925;29;20887;-67
2022/10/30 09:14:01;;;;;;;9.47;6.53;;;17.20;99.90;;;;;;4922446;29;20239;-66
2022/10/30 09:16:27;;;;;;;10.73;7.17;;;17.10;99.90;;;;;;4922428;29;20219;-68
2022/10/30 09:18:52;;;;;;;11.70;6.97;;;17.10;99.90;;;;;;4922754;29;20210;-67
2022/10/30 09:21:18;;;;;;;16.87;6.93;;;17.00;99.90;;;;;;4925154;29;20191;-66
2022/10/30 09:23:43;;;;;;;9.60;6.83;;;17.00;99.90;;;;;;4920762;29;20788;-68
2022/10/30 09:26:09;;;;;;;14.77;6.70;;;17.10;99.90;;;;;;4922944;29;20285;-67
2022/10/30 09:28:35;;;;;;;15.97;7.23;;;17.10;99.90;;;;;;4923618;29;20199;-66
2022/10/30 09:31:01;;;;;;;12.57;7.13;;;17.10;99.90;;;;;;4924499;29;20203;-67
2022/10/30 09:33:26;;;;;;;10.97;6.53;;;17.20;99.90;;;;;;4923814;29;20230;-65
2022/10/30 09:35:52;;;;;;;13.60;6.53;;;17.30;99.90;;;;;;4929257;29;20352;-67
2022/10/30 09:38:17;;;;;;;10.97;5.93;;;17.40;99.90;;;;;;4924828;29;20203;-65
2022/10/30 09:41:15;;;;;;;9.27;6.73;;;17.50;99.90;;;;;;4933374;29;20258;-68
2022/10/30 09:44:04;;;;;;;10.30;6.77;;;17.60;99.90;;;;;;4925298;29;20727;-65
2022/10/30 09:46:42;;;;;;;11.23;6.63;;;17.70;99.90;;;;;;4929123;29;20214;-67
2022/10/30 09:49:45;;;;;;;12.97;6.60;;;17.80;99.90;;;;;;4932231;29;20219;-68
2022/10/30 09:52:26;;;;;;;13.50;6.43;;;17.90;99.90;;;;;;4931386;29;20597;-68
2022/10/30 09:54:57;;;;;;;12.17;6.67;;;18.00;99.90;;;;;;4931428;28;20294;-68
2022/10/30 09:57:57;;;;;;;11.17;6.37;;;18.20;99.90;;;;;;4929239;29;20339;-68
2022/10/30 10:00:38;;;;;;;14.37;6.43;;;18.30;99.90;;;;;;4923079;29;20207;-68
2022/10/30 10:03:43;;;;;;;14.57;6.53;;;18.40;99.90;;;;;;4932138;29;20206;-69
2022/10/30 10:06:16;;;;;;;15.10;7.03;;;18.50;99.90;;;;;;4928581;29;20237;-69
2022/10/30 10:08:47;;;;;;;16.13;7.00;;;18.60;99.90;;;;;;4923908;29;20243;-68
2022/10/30 10:11:20;;;;;;;15.33;7.47;;;18.70;99.90;;;;;;4931729;29;20209;-68
2022/10/30 10:14:08;;;;;;;9.47;6.63;;;18.70;99.90;;;;;;4923854;29;20239;-69
2022/10/30 10:16:37;;;;;;;9.43;6.37;;;18.80;99.90;;;;;;4928651;29;20602;-68
2022/10/30 10:19:29;;;;;;;8.17;6.07;;;18.90;99.90;;;;;;4933745;29;20217;-68
2022/10/30 10:21:57;;;;;;;14.07;6.10;;;19.00;99.90;;;;;;4926626;29;20230;-68
2022/10/30 10:24:37;;;;;;;7.40;5.50;;;19.10;99.90;;;;;;4928689;29;20594;-69
2022/10/30 10:27:15;;;;;;;11.13;5.27;;;19.20;99.90;;;;;;4928727;29;20216;-68
2022/10/30 10:29:57;;;;;;;8.47;6.20;;;19.40;99.90;;;;;;4930276;29;20231;-70
2022/10/30 10:32:51;;;;;;;10.10;6.03;;;19.50;99.90;;;;;;4926297;29;20205;-69
2022/10/30 10:35:52;;;;;;;11.50;6.37;;;19.60;99.90;;;;;;4931325;29;20552;-72
2022/10/30 10:39:02;;;;;;;10.97;6.13;;;19.70;99.90;;;;;;4915706;29;20223;-67
2022/10/30 10:41:57;;;;;;;15.00;6.97;;;19.70;99.90;;;;;;4893426;29;20282;-67
2022/10/30 10:44:41;;;;;;;15.53;6.37;;;19.80;99.90;;;;;;4929119;29;20212;-68
2022/10/30 10:47:14;;;;;;;9.17;5.17;;;20.00;99.90;;;;;;4926048;29;20558;-68
2022/10/30 10:49:55;;;;;;;9.60;6.00;;;20.10;99.90;;;;;;4925603;29;20212;-68
2022/10/30 10:52:34;;;;;;;8.47;5.03;;;20.10;99.90;;;;;;4924727;29;20244;-69
2022/10/30 10:55:07;;;;;;;11.77;5.30;;;20.20;99.90;;;;;;4929385;29;20700;-69
2022/10/30 10:57:39;;;;;;;7.23;5.00;;;20.30;99.90;;;;;;4928537;29;20254;-69
2022/10/30 11:00:12;;;;;;;9.43;5.93;;;20.40;99.90;;;;;;4929890;29;20215;-65
2022/10/30 11:02:43;;;;;;;9.83;4.97;;;20.50;99.90;;;;;;4928375;29;20219;-70
2022/10/30 11:05:30;;;;;;;11.13;6.53;;;20.70;99.90;;;;;;4928429;29;20809;-66
2022/10/30 11:08:21;;;;;;;7.67;5.83;;;20.90;99.90;;;;;;4929190;29;20208;-65
2022/10/30 11:10:55;;;;;;;6.47;4.50;;;21.00;99.90;;;;;;4932025;29;20308;-71
2022/10/30 11:13:25;;;;;;;9.33;5.47;;;21.30;99.90;;;;;;4927966;29;20760;-69
2022/10/30 11:16:01;;;;;;;9.27;5.27;;;21.40;99.90;;;;;;4927012;29;21008;-69
2022/10/30 11:18:26;;;;;;;7.90;4.77;;;21.60;99.90;;;;;;4927884;29;20209;-69
2022/10/30 11:20:58;;;;;;;10.37;5.47;;;21.60;99.90;;;;;;4929050;29;20957;-69
2022/10/30 11:23:38;;;;;;;12.40;5.77;;;21.80;99.90;;;;;;4927010;29;20298;-68
2022/10/30 11:26:25;;;;;;;10.43;5.23;;;22.00;99.90;;;;;;4925635;29;20233;-70
2022/10/30 11:29:10;;;;;;;10.27;5.17;;;22.20;99.90;;;;;;4929447;29;20229;-66
2022/10/30 11:31:39;;;;;;;10.27;4.97;;;22.10;99.90;;;;;;4921095;29;20214;-70
2022/10/30 11:34:16;;;;;;;15.03;5.93;;;22.00;99.90;;;;;;4929347;29;20221;-68
2022/10/30 11:37:02;;;;;;;8.63;4.83;;;22.00;99.90;;;;;;4927499;29;20221;-68
2022/10/30 11:39:34;;;;;;;7.43;5.07;;;22.10;99.90;;;;;;4928850;29;20214;-67
2022/10/30 11:42:10;;;;;;;9.83;5.37;;;22.40;99.90;;;;;;4923399;29;20668;-67
2022/10/30 11:44:40;;;;;;;11.77;4.23;;;22.70;99.90;;;;;;4922740;29;20210;-68
2022/10/30 11:47:07;;;;;;;9.13;5.10;;;23.10;99.90;;;;;;4920726;29;20242;-66
2022/10/30 11:49:59;;;;;;;8.30;5.47;;;23.40;99.90;;;;;;4923209;29;20211;-69
2022/10/30 11:52:26;;;;;;;11.05;5.00;;;23.60;99.90;;;;;;4920601;29;20562;-69
2022/10/30 11:55:02;;;;;;;11.35;4.57;;;23.80;99.40;;;;;;4921573;29;20227;-67
2022/10/30 11:57:48;;;;;;;8.13;4.75;;;23.70;99.00;;;;;;4928493;29;20218;-70
2022/10/30 12:00:26;;;;;;;11.25;4.97;;;23.70;98.90;;;;;;4924186;29;20239;-69
2022/10/30 12:02:54;;;;;;;16.95;5.40;;;23.90;98.50;;;;;;4926688;29;20237;-69
2022/10/30 12:05:26;;;;;;;10.27;4.72;;;23.80;98.40;;;;;;4928071;29;20669;-70
2022/10/30 12:07:52;;;;;;;12.27;5.32;;;23.90;98.30;;;;;;4928544;29;20207;-79
2022/10/30 12:10:29;;;;;;;11.98;5.03;;;23.90;98.40;;;;;;4928737;29;20202;-72
2022/10/30 12:12:55;;;;;;;7.88;4.18;;;23.90;98.20;;;;;;4924047;29;21002;-75
2022/10/30 12:15:24;;;;;;;11.87;5.23;;;24.00;98.10;;;;;;4929415;29;20265;-80
2022/10/30 12:17:52;;;;;;;13.90;5.70;;;24.20;98.10;;;;;;4927418;29;20221;-75
2022/10/30 12:20:18;;;;;;;10.20;5.45;;;24.20;97.60;;;;;;4924359;29;20205;-73
2022/10/30 12:22:43;;;;;;;12.32;4.80;;;24.20;97.60;;;;;;4928707;29;20915;-72
2022/10/30 12:25:29;;;;;;;5.97;4.72;;;24.20;98.10;;;;;;4925015;29;20695;-74
2022/10/30 12:28:07;;;;;;;8.88;4.82;;;24.50;97.30;;;;;;4921366;29;20215;-72
2022/10/30 12:30:53;;;;;;;14.20;5.65;;;24.60;96.40;;;;;;4922698;29;20686;-73
2022/10/30 12:33:27;;;;;;;8.35;4.95;;;24.70;96.70;;;;;;4926113;29;20236;-73
2022/10/30 12:36:02;;;;;;;13.82;4.93;;;24.60;96.50;;;;;;4920110;29;20214;-74
2022/10/30 12:38:41;;;;;;;9.82;5.25;;;24.60;96.30;;;;;;4923396;29;20199;-73
2022/10/30 12:41:12;;;;;;;11.43;5.47;;;24.80;95.70;;;;;;4925305;29;20205;-75
2022/10/30 12:43:40;;;;;;;8.77;4.82;;;25.10;95.40;;;;;;4923775;29;20196;-72
2022/10/30 12:46:13;;;;;;;18.38;6.57;;;25.30;95.20;;;;;;4921470;29;20207;-70